Time;durP1;ratioP1;P1;durP2;ratioP2;P2;SDS_P1;SDS_P2;PMS_P1;PMS_P2;Temp;Humidity;BMP_temperature;BMP_pressure;BME280_temperature;BME280_humidity;BME280_pressure;Samples;Min_cycle;Max_cycle;Signal;HPM_P1;HPM_P2
2022/09/22 00:00:56;;;;;;;7.27;4.20;;;;;;;;;;5051263;28;20049;-61
2022/09/22 00:03:22;;;;;;;12.97;4.43;;;;;;;;;;5051154;28;20052;-61
2022/09/22 00:05:48;;;;;;;9.70;4.50;;;;;;;;;;5051550;28;20045;-61
2022/09/22 00:08:14;;;;;;;10.43;4.93;;;;;;;;;;5050286;28;20098;-61
2022/09/22 00:10:40;;;;;;;6.63;3.90;;;;;;;;;;5051075;28;20510;-61
2022/09/22 00:13:06;;;;;;;6.17;3.83;;;;;;;;;;5050905;28;20041;-61
2022/09/22 00:15:32;;;;;;;7.70;3.90;;;;;;;;;;5051174;28;20072;-61
2022/09/22 00:17:58;;;;;;;6.73;4.00;;;;;;;;;;5051190;28;20036;-61
2022/09/22 00:20:24;;;;;;;8.33;3.80;;;;;;;;;;5051124;28;20049;-61
2022/09/22 00:22:51;;;;;;;6.83;3.43;;;;;;;;;;5049998;28;20095;-61
2022/09/22 00:25:17;;;;;;;9.40;4.73;;;;;;;;;;5050604;28;20049;-61
2022/09/22 00:27:45;;;;;;;10.53;4.60;;;;;;;;;;5050712;28;20699;-61
2022/09/22 00:30:12;;;;;;;7.97;3.97;;;;;;;;;;5050547;28;20049;-61
2022/09/22 00:32:39;;;;;;;6.90;3.97;;;;;;;;;;5050637;28;20052;-61
2022/09/22 00:35:05;;;;;;;7.57;4.40;;;;;;;;;;5050777;28;20049;-61
2022/09/22 00:37:31;;;;;;;9.27;4.93;;;;;;;;;;5049927;28;20166;-61
2022/09/22 00:39:57;;;;;;;8.47;4.90;;;;;;;;;;5050724;28;20045;-61
2022/09/22 00:42:24;;;;;;;12.00;4.07;;;;;;;;;;5050150;28;20103;-61
2022/09/22 00:44:51;;;;;;;9.83;4.27;;;;;;;;;;5050359;28;20080;-61
2022/09/22 00:47:35;;;;;;;7.83;4.30;;;;;;;;;;5049235;28;20460;-61
2022/09/22 00:50:10;;;;;;;8.70;4.20;;;;;;;;;;5050361;28;20045;-61
2022/09/22 00:52:37;;;;;;;10.63;4.33;;;;;;;;;;5049990;28;20986;-61
2022/09/22 00:55:05;;;;;;;10.80;4.07;;;;;;;;;;5049996;28;20055;-61
2022/09/22 00:57:33;;;;;;;6.97;4.10;;;;;;;;;;5050346;28;20111;-61
2022/09/22 01:00:00;;;;;;;11.43;4.43;;;;;;;;;;5050346;28;20045;-61
2022/09/22 01:02:26;;;;;;;10.70;5.23;;;;;;;;;;5049919;28;20055;-61
2022/09/22 01:04:52;;;;;;;8.53;4.57;;;;;;;;;;5049536;28;20049;-61
2022/09/22 01:07:20;;;;;;;11.63;6.00;;;;;;;;;;5031088;28;20179;-61
2022/09/22 01:09:46;;;;;;;11.43;4.77;;;;;;;;;;5030061;28;20106;-61
2022/09/22 01:12:12;;;;;;;12.17;6.03;;;;;;;;;;5032778;28;20040;-61
2022/09/22 01:14:50;;;;;;;9.73;5.80;;;;;;;;;;5049396;28;20041;-61
2022/09/22 01:17:23;;;;;;;12.60;6.07;;;;;;;;;;5050170;28;20053;-61
2022/09/22 01:19:49;;;;;;;13.33;5.70;;;;;;;;;;5049732;28;20053;-61
2022/09/22 01:22:33;;;;;;;10.53;5.40;;;;;;;;;;5050047;28;20056;-61
2022/09/22 01:25:20;;;;;;;7.80;4.83;;;;;;;;;;5049657;28;20067;-61
2022/09/22 01:27:55;;;;;;;9.67;5.80;;;;;;;;;;5015321;28;20053;-61
2022/09/22 01:30:38;;;;;;;8.20;4.87;;;;;;;;;;5029954;28;20049;-61
2022/09/22 01:33:15;;;;;;;8.27;5.43;;;;;;;;;;5029633;28;20050;-61
2022/09/22 01:35:53;;;;;;;9.17;5.63;;;;;;;;;;5029848;28;20041;-61
2022/09/22 01:38:42;;;;;;;10.67;5.67;;;;;;;;;;5045343;28;20045;-61
2022/09/22 01:41:11;;;;;;;8.33;5.03;;;;;;;;;;5049072;28;20049;-61
2022/09/22 01:43:42;;;;;;;9.10;4.67;;;;;;;;;;5049607;28;20067;-61
2022/09/22 01:46:17;;;;;;;10.00;5.17;;;;;;;;;;5049671;28;20045;-61
2022/09/22 01:48:46;;;;;;;10.70;4.20;;;;;;;;;;5049414;28;20090;-61
2022/09/22 01:51:20;;;;;;;8.87;4.70;;;;;;;;;;5049341;28;20139;-61
2022/09/22 01:53:50;;;;;;;8.20;4.40;;;;;;;;;;5048699;28;20056;-61
2022/09/22 01:56:17;;;;;;;9.10;5.10;;;;;;;;;;5048912;28;20045;-60
2022/09/22 01:58:48;;;;;;;10.60;5.00;;;;;;;;;;5048887;28;20044;-60
2022/09/22 02:01:16;;;;;;;9.70;5.20;;;;;;;;;;5049103;28;20048;-60
2022/09/22 02:03:44;;;;;;;8.57;4.67;;;;;;;;;;5048891;28;20550;-60
2022/09/22 02:06:28;;;;;;;8.07;4.37;;;;;;;;;;5048875;28;20044;-60
2022/09/22 02:08:57;;;;;;;11.03;4.70;;;;;;;;;;5048901;28;20178;-60
2022/09/22 02:11:23;;;;;;;6.67;3.50;;;;;;;;;;5049107;28;20059;-60
2022/09/22 02:13:49;;;;;;;10.30;4.87;;;;;;;;;;5048528;28;20044;-60
2022/09/22 02:16:17;;;;;;;6.50;4.13;;;;;;;;;;5048620;28;20094;-61
2022/09/22 02:18:58;;;;;;;10.37;4.70;;;;;;;;;;5049131;28;20045;-60
2022/09/22 02:21:26;;;;;;;6.73;4.83;;;;;;;;;;5048856;28;20037;-61
2022/09/22 02:23:53;;;;;;;8.57;4.20;;;;;;;;;;5048910;28;20040;-61
2022/09/22 02:26:22;;;;;;;7.33;3.83;;;;;;;;;;5048744;28;20041;-61
2022/09/22 02:28:50;;;;;;;6.03;3.73;;;;;;;;;;5048535;28;20053;-61
2022/09/22 02:31:17;;;;;;;4.60;3.40;;;;;;;;;;5048805;28;20173;-61
2022/09/22 02:33:43;;;;;;;6.70;4.47;;;;;;;;;;5048925;28;20053;-61
2022/09/22 02:36:22;;;;;;;8.07;4.67;;;;;;;;;;5048102;28;20595;-61
2022/09/22 02:39:05;;;;;;;7.40;4.67;;;;;;;;;;5048748;28;20041;-60
2022/09/22 02:41:38;;;;;;;7.63;5.00;;;;;;;;;;5042098;28;20495;-61
2022/09/22 02:44:34;;;;;;;7.65;4.78;;;;;;;;;;5034431;28;20055;-61
2022/09/22 02:47:07;;;;;;;9.40;5.43;;;;;;;;;;4957951;28;20457;-60
2022/09/22 02:49:33;;;;;;;;;;;;;;;;;;5038651;28;20836;-61
2022/09/22 02:51:59;;;;;;;6.67;4.93;;;;;;;;;;5048327;28;20011;-60
2022/09/22 02:54:25;;;;;;;8.03;5.03;;;;;;;;;;5048527;28;20138;-60
2022/09/22 02:56:51;;;;;;;9.87;5.33;;;;;;;;;;5048578;28;20087;-60
2022/09/22 02:59:17;;;;;;;8.73;5.83;;;;;;;;;;5048374;28;20044;-61
2022/09/22 03:01:43;;;;;;;13.20;7.40;;;;;;;;;;5048587;28;20045;-61
2022/09/22 03:04:09;;;;;;;12.67;6.83;;;;;;;;;;5048437;28;20041;-61
2022/09/22 03:06:37;;;;;;;12.20;7.10;;;;;;;;;;5048545;28;20049;-60
2022/09/22 03:09:03;;;;;;;10.97;7.20;;;;;;;;;;5047737;28;20073;-61
2022/09/22 03:11:29;;;;;;;7.00;5.40;;;;;;;;;;5048569;28;20186;-60
2022/09/22 03:13:55;;;;;;;7.90;5.53;;;;;;;;;;5047877;28;20045;-61
2022/09/22 03:16:23;;;;;;;15.17;7.13;;;;;;;;;;5048648;28;20048;-61
2022/09/22 03:18:49;;;;;;;12.03;7.80;;;;;;;;;;5047854;28;20114;-61
2022/09/22 03:21:15;;;;;;;12.93;8.70;;;;;;;;;;5047753;28;20749;-61
2022/09/22 03:23:41;;;;;;;12.77;7.50;;;;;;;;;;5048305;28;20146;-60
2022/09/22 03:26:07;;;;;;;16.77;7.57;;;;;;;;;;5041927;28;20045;-60
2022/09/22 03:28:35;;;;;;;15.17;9.17;;;;;;;;;;5049709;28;20135;-61
2022/09/22 03:31:01;;;;;;;14.60;7.73;;;;;;;;;;5051886;28;20060;-61
2022/09/22 03:33:27;;;;;;;14.43;7.57;;;;;;;;;;5051989;28;20041;-60
2022/09/22 03:35:53;;;;;;;15.70;7.43;;;;;;;;;;5051557;28;20859;-60
2022/09/22 03:38:19;;;;;;;9.67;6.37;;;;;;;;;;5051671;28;20083;-60
2022/09/22 03:40:52;;;;;;;12.03;6.83;;;;;;;;;;5039518;28;20041;-61
2022/09/22 03:43:18;;;;;;;13.38;7.07;;;;;;;;;;5051416;28;20552;-61
2022/09/22 03:45:44;;;;;;;13.20;8.17;;;;;;;;;;5052081;28;20132;-60
2022/09/22 03:48:10;;;;;;;16.70;10.23;;;;;;;;;;5051206;28;20127;-61
2022/09/22 03:50:36;;;;;;;17.27;10.77;;;;;;;;;;5051282;28;20517;-60
2022/09/22 03:53:02;;;;;;;17.77;10.47;;;;;;;;;;5051354;28;20075;-60
2022/09/22 03:55:28;;;;;;;14.87;8.60;;;;;;;;;;5051473;28;20040;-60
2022/09/22 03:57:54;;;;;;;22.10;12.57;;;;;;;;;;5051083;28;20076;-60
2022/09/22 04:00:20;;;;;;;24.97;15.13;;;;;;;;;;5050754;28;20433;-61
2022/09/22 04:02:46;;;;;;;29.57;18.50;;;;;;;;;;5051703;28;20049;-60
2022/09/22 04:05:12;;;;;;;19.00;13.23;;;;;;;;;;5051265;28;20132;-60
2022/09/22 04:07:38;;;;;;;21.33;13.03;;;;;;;;;;5050429;28;20049;-60
2022/09/22 04:10:05;;;;;;;25.27;13.63;;;;;;;;;;5050617;28;20095;-61
2022/09/22 04:12:31;;;;;;;26.97;14.43;;;;;;;;;;5051270;28;20087;-61
2022/09/22 04:14:57;;;;;;;21.60;13.53;;;;;;;;;;5050546;28;20077;-61
2022/09/22 04:17:23;;;;;;;30.07;18.20;;;;;;;;;;5051063;28;20067;-61
2022/09/22 04:19:49;;;;;;;27.63;15.73;;;;;;;;;;5050913;28;20056;-61
2022/09/22 04:22:15;;;;;;;30.63;17.47;;;;;;;;;;5049972;28;20048;-61
2022/09/22 04:24:41;;;;;;;29.27;16.27;;;;;;;;;;5050624;28;20062;-61
2022/09/22 04:27:07;;;;;;;41.47;24.30;;;;;;;;;;5050971;28;20044;-61
2022/09/22 04:29:33;;;;;;;26.60;15.63;;;;;;;;;;5050336;28;20045;-60
2022/09/22 04:31:59;;;;;;;39.87;19.23;;;;;;;;;;5050715;28;20040;-60
2022/09/22 04:34:25;;;;;;;34.03;19.27;;;;;;;;;;5050487;28;20103;-61
2022/09/22 04:36:51;;;;;;;31.13;18.00;;;;;;;;;;5050559;28;20037;-61
2022/09/22 04:39:17;;;;;;;33.93;17.60;;;;;;;;;;5048758;28;20111;-61
2022/09/22 04:41:43;;;;;;;29.00;17.07;;;;;;;;;;5049999;28;20044;-61
2022/09/22 04:44:09;;;;;;;30.57;16.97;;;;;;;;;;5051113;28;20057;-60
2022/09/22 04:46:35;;;;;;;24.93;15.87;;;;;;;;;;5051030;28;20139;-61
2022/09/22 04:49:02;;;;;;;26.57;17.27;;;;;;;;;;5050159;28;20431;-61
2022/09/22 04:51:28;;;;;;;26.87;15.67;;;;;;;;;;5050341;28;20507;-61
2022/09/22 04:53:54;;;;;;;25.63;15.47;;;;;;;;;;5050406;28;20060;-61
2022/09/22 04:56:20;;;;;;;26.67;15.23;;;;;;;;;;5050628;28;20041;-61
2022/09/22 04:58:46;;;;;;;44.47;22.30;;;;;;;;;;5050679;28;20082;-61
2022/09/22 05:01:13;;;;;;;33.57;18.90;;;;;;;;;;5049660;28;20091;-61
2022/09/22 05:03:39;;;;;;;38.50;22.17;;;;;;;;;;5049535;28;20118;-61
2022/09/22 05:06:05;;;;;;;33.40;19.90;;;;;;;;;;5050439;28;20067;-61
2022/09/22 05:08:32;;;;;;;34.80;19.07;;;;;;;;;;5049807;28;20053;-61
2022/09/22 05:10:58;;;;;;;22.63;13.40;;;;;;;;;;5049986;28;20470;-61
2022/09/22 05:13:24;;;;;;;18.23;11.53;;;;;;;;;;5050278;28;20072;-62
2022/09/22 05:15:50;;;;;;;18.23;10.90;;;;;;;;;;5050406;28;20434;-61
2022/09/22 05:18:16;;;;;;;13.63;9.30;;;;;;;;;;5050372;28;20044;-60
2022/09/22 05:20:44;;;;;;;26.40;15.80;;;;;;;;;;5049980;28;20052;-61
2022/09/22 05:23:10;;;;;;;27.10;16.23;;;;;;;;;;5049939;28;20048;-61
2022/09/22 05:25:38;;;;;;;22.73;16.33;;;;;;;;;;5049836;28;20048;-61
2022/09/22 05:28:04;;;;;;;24.93;15.93;;;;;;;;;;5049223;28;20052;-61
2022/09/22 05:30:30;;;;;;;34.57;19.93;;;;;;;;;;5038416;28;20388;-61
2022/09/22 05:32:56;;;;;;;24.90;15.17;;;;;;;;;;5049593;28;20052;-62
2022/09/22 05:35:22;;;;;;;25.60;15.40;;;;;;;;;;5041724;28;20567;-62
2022/09/22 05:37:50;;;;;;;26.90;17.07;;;;;;;;;;5049742;28;20056;-60
2022/09/22 05:40:16;;;;;;;26.53;18.10;;;;;;;;;;5049644;28;20057;-62
2022/09/22 05:42:47;;;;;;;25.20;15.67;;;;;;;;;;5049655;28;20132;-61
2022/09/22 05:45:13;;;;;;;21.97;13.87;;;;;;;;;;5049121;28;20120;-61
2022/09/22 05:47:40;;;;;;;30.10;18.93;;;;;;;;;;5048808;28;20538;-61
2022/09/22 05:50:06;;;;;;;31.13;19.57;;;;;;;;;;5048920;28;20076;-61
2022/09/22 05:52:33;;;;;;;22.00;16.10;;;;;;;;;;5049390;28;20037;-62
2022/09/22 05:54:59;;;;;;;21.63;16.27;;;;;;;;;;5048964;28;20053;-62
2022/09/22 05:57:26;;;;;;;30.23;18.87;;;;;;;;;;5048807;28;20049;-61
2022/09/22 05:59:52;;;;;;;28.23;18.60;;;;;;;;;;5049092;28;20049;-61
2022/09/22 06:02:18;;;;;;;27.00;16.93;;;;;;;;;;5049150;28;20147;-61
2022/09/22 06:04:46;;;;;;;24.50;16.80;;;;;;;;;;5048508;28;20037;-62
2022/09/22 06:07:13;;;;;;;26.03;16.10;;;;;;;;;;5048348;28;20053;-60
2022/09/22 06:09:39;;;;;;;20.97;14.60;;;;;;;;;;5049442;28;20670;-62
2022/09/22 06:12:07;;;;;;;20.30;14.13;;;;;;;;;;5048277;28;20098;-61
2022/09/22 06:14:33;;;;;;;32.80;20.20;;;;;;;;;;5048894;28;20049;-61
2022/09/22 06:16:59;;;;;;;21.97;15.50;;;;;;;;;;5047939;28;20045;-61
2022/09/22 06:19:27;;;;;;;22.47;15.77;;;;;;;;;;5048554;28;20057;-60
2022/09/22 06:21:53;;;;;;;19.80;15.03;;;;;;;;;;5047400;28;20132;-61
2022/09/22 06:24:21;;;;;;;23.80;15.80;;;;;;;;;;5028917;28;20085;-61
2022/09/22 06:26:47;;;;;;;28.53;18.97;;;;;;;;;;5037002;28;20072;-61
2022/09/22 06:29:13;;;;;;;39.43;24.43;;;;;;;;;;5047781;28;20068;-61
2022/09/22 06:31:39;;;;;;;27.80;18.33;;;;;;;;;;5048156;28;20048;-61
2022/09/22 06:34:05;;;;;;;27.00;19.80;;;;;;;;;;5028652;28;20060;-61
2022/09/22 06:36:31;;;;;;;34.93;24.27;;;;;;;;;;5028547;28;20045;-61
2022/09/22 06:38:58;;;;;;;41.30;28.57;;;;;;;;;;5028249;28;20400;-61
2022/09/22 06:41:31;;;;;;;49.87;32.90;;;;;;;;;;5026904;28;20057;-61
2022/09/22 06:43:57;;;;;;;42.40;30.08;;;;;;;;;;5029026;28;20041;-61
2022/09/22 06:46:25;;;;;;;37.87;27.60;;;;;;;;;;5040342;28;20045;-61
2022/09/22 06:48:56;;;;;;;40.50;29.90;;;;;;;;;;5047850;28;20049;-61
2022/09/22 06:51:31;;;;;;;40.30;29.13;;;;;;;;;;5043783;28;20045;-61
2022/09/22 06:53:58;;;;;;;43.63;32.13;;;;;;;;;;5042380;28;20092;-61
2022/09/22 06:56:24;;;;;;;39.63;29.40;;;;;;;;;;5029414;28;20049;-61
2022/09/22 06:58:51;;;;;;;38.73;28.93;;;;;;;;;;5048525;28;20106;-60
2022/09/22 07:01:18;;;;;;;53.23;36.47;;;;;;;;;;5047365;28;20432;-62
2022/09/22 07:03:45;;;;;;;49.93;35.67;;;;;;;;;;5050691;28;20051;-61
2022/09/22 07:06:12;;;;;;;45.73;30.27;;;;;;;;;;5042048;28;20138;-61
2022/09/22 07:08:38;;;;;;;37.83;28.17;;;;;;;;;;5041588;28;20057;-61
2022/09/22 07:11:07;;;;;;;32.07;26.57;;;;;;;;;;5040438;28;20411;-61
2022/09/22 07:13:37;;;;;;;41.90;30.33;;;;;;;;;;5040947;28;20041;-61
2022/09/22 07:16:08;;;;;;;36.97;25.33;;;;;;;;;;5044557;28;20087;-61
2022/09/22 07:18:34;;;;;;;35.93;25.27;;;;;;;;;;5042311;28;20469;-61
2022/09/22 07:21:07;;;;;;;28.37;23.50;;;;;;;;;;5041610;28;20052;-61
2022/09/22 07:23:35;;;;;;;31.23;24.80;;;;;;;;;;5036168;28;20340;-61
2022/09/22 07:26:05;;;;;;;31.73;24.13;;;;;;;;;;5051098;28;20049;-61
2022/09/22 07:28:32;;;;;;;33.20;24.37;;;;;;;;;;5050959;28;20132;-61
2022/09/22 07:31:04;;;;;;;30.13;23.03;;;;;;;;;;5048908;28;20415;-61
2022/09/22 07:33:31;;;;;;;35.17;24.37;;;;;;;;;;5051226;28;20083;-61
2022/09/22 07:36:07;;;;;;;26.03;17.93;;;;;;;;;;5051315;28;20049;-61
2022/09/22 07:38:35;;;;;;;31.43;20.93;;;;;;;;;;5050717;28;20499;-61
2022/09/22 07:41:02;;;;;;;25.73;18.40;;;;;;;;;;5050896;28;20048;-61
2022/09/22 07:43:28;;;;;;;22.13;16.33;;;;;;;;;;5050328;28;20045;-62
2022/09/22 07:45:56;;;;;;;19.80;16.93;;;;;;;;;;5049595;28;20037;-61
2022/09/22 07:51:17;;;;;;;26.60;19.53;;;;;;;;;;5048362;28;20052;-61
2022/09/22 07:53:44;;;;;;;19.73;15.47;;;;;;;;;;5049445;28;20509;-61
2022/09/22 07:56:12;;;;;;;20.10;14.87;;;;;;;;;;5049226;28;20037;-61
2022/09/22 07:58:56;;;;;;;19.87;14.43;;;;;;;;;;5048179;28;20125;-61
2022/09/22 08:01:23;;;;;;;19.17;14.50;;;;;;;;;;5050234;28;20053;-61
2022/09/22 08:03:50;;;;;;;20.40;17.70;;;;;;;;;;5050518;28;20084;-61
2022/09/22 08:06:18;;;;;;;18.37;13.00;;;;;;;;;;5050855;28;20045;-61
2022/09/22 08:08:46;;;;;;;21.17;11.70;;;;;;;;;;5050453;28;20057;-62
2022/09/22 08:11:16;;;;;;;19.37;11.73;;;;;;;;;;5050145;28;20423;-62
2022/09/22 08:13:45;;;;;;;13.93;10.83;;;;;;;;;;5049187;28;20048;-62
2022/09/22 08:16:11;;;;;;;14.13;8.33;;;;;;;;;;5050044;28;20045;-62
2022/09/22 08:18:38;;;;;;;11.50;9.50;;;;;;;;;;5050421;28;20052;-62
2022/09/22 08:21:05;;;;;;;12.53;8.37;;;;;;;;;;5050356;28;20418;-62
2022/09/22 08:23:31;;;;;;;11.73;7.77;;;;;;;;;;5049385;28;20099;-62
2022/09/22 08:26:02;;;;;;;15.27;10.03;;;;;;;;;;5050666;28;20091;-62
2022/09/22 08:28:28;;;;;;;14.13;8.63;;;;;;;;;;5049897;28;20071;-62
2022/09/22 08:30:54;;;;;;;13.47;8.07;;;;;;;;;;5050138;28;20045;-62
2022/09/22 08:33:20;;;;;;;9.50;6.97;;;;;;;;;;5050696;28;20057;-62
2022/09/22 08:35:54;;;;;;;8.63;7.20;;;;;;;;;;5049737;28;20122;-62
2022/09/22 08:38:22;;;;;;;14.13;8.25;;;;;;;;;;5050092;28;20047;-62
2022/09/22 08:40:58;;;;;;;8.90;5.73;;;;;;;;;;5049382;28;20045;-62
2022/09/22 08:43:24;;;;;;;8.03;5.03;;;;;;;;;;5050185;28;20056;-62
2022/09/22 08:45:50;;;;;;;9.50;4.63;;;;;;;;;;5049281;28;20052;-62
2022/09/22 08:54:03;;;;;;;6.23;3.50;;;;;;;;;;5049624;28;20049;-61
2022/09/22 08:56:38;;;;;;;11.23;3.23;;;;;;;;;;5047761;28;20917;-62
2022/09/22 08:59:23;;;;;;;8.13;3.53;;;;;;;;;;5050040;28;20407;-61
2022/09/22 09:02:07;;;;;;;9.37;3.33;;;;;;;;;;5049846;28;20455;-62
2022/09/22 09:04:45;;;;;;;9.17;4.47;;;;;;;;;;5049894;28;20051;-61
2022/09/22 09:07:14;;;;;;;5.63;2.97;;;;;;;;;;5048680;28;20118;-62
2022/09/22 09:09:59;;;;;;;6.00;3.23;;;;;;;;;;5049489;28;20065;-62
2022/09/22 09:12:33;;;;;;;6.20;3.27;;;;;;;;;;5049691;28;20049;-61
2022/09/22 09:15:08;;;;;;;8.20;2.73;;;;;;;;;;5049264;28;20094;-61
2022/09/22 09:17:36;;;;;;;8.47;3.23;;;;;;;;;;5049618;28;20526;-62
2022/09/22 09:20:21;;;;;;;7.73;3.07;;;;;;;;;;5048986;28;20136;-62
2022/09/22 09:22:54;;;;;;;7.73;4.27;;;;;;;;;;5048791;28;20049;-61
2022/09/22 09:25:21;;;;;;;;;;;;;;;;;;5049177;28;20047;-62
2022/09/22 09:27:50;;;;;;;6.83;3.17;;;;;;;;;;5048555;28;20503;-62
2022/09/22 09:30:18;;;;;;;9.43;2.53;;;;;;;;;;5049132;28;20056;-62
2022/09/22 09:32:47;;;;;;;8.20;3.00;;;;;;;;;;5049094;28;20532;-62
2022/09/22 09:35:25;;;;;;;7.27;2.30;;;;;;;;;;5047600;28;20063;-60
2022/09/22 09:37:53;;;;;;;6.07;2.43;;;;;;;;;;5048967;28;20517;-60
2022/09/22 09:40:20;;;;;;;5.87;2.40;;;;;;;;;;5048820;28;20056;-60
2022/09/22 09:42:49;;;;;;;5.27;2.70;;;;;;;;;;5047741;28;20053;-60
2022/09/22 09:45:16;;;;;;;5.27;2.57;;;;;;;;;;5048097;28;20048;-60
2022/09/22 09:47:59;;;;;;;7.63;2.93;;;;;;;;;;5048998;28;20045;-60
2022/09/22 09:50:30;;;;;;;5.80;2.65;;;;;;;;;;5048232;28;20056;-60
2022/09/22 09:52:58;;;;;;;6.90;2.57;;;;;;;;;;5048719;28;20053;-60
2022/09/22 09:55:24;;;;;;;5.73;2.50;;;;;;;;;;5047760;28;20498;-60
2022/09/22 09:58:09;;;;;;;6.27;2.27;;;;;;;;;;5048606;28;20049;-60
2022/09/22 10:00:53;;;;;;;4.07;1.90;;;;;;;;;;5048280;28;20088;-60
2022/09/22 10:03:29;;;;;;;5.90;2.17;;;;;;;;;;5048654;28;20049;-60
2022/09/22 10:05:59;;;;;;;9.23;2.57;;;;;;;;;;5048431;28;20080;-60
2022/09/22 10:08:26;;;;;;;4.33;2.03;;;;;;;;;;5047741;28;20457;-60
2022/09/22 10:10:57;;;;;;;5.90;2.17;;;;;;;;;;5048588;28;20045;-60
2022/09/22 10:13:28;;;;;;;5.67;2.67;;;;;;;;;;5048063;28;20087;-60
2022/09/22 10:16:20;;;;;;;5.13;1.80;;;;;;;;;;5048135;28;20059;-60
2022/09/22 10:18:47;;;;;;;5.77;2.07;;;;;;;;;;5044909;28;20055;-59
2022/09/22 10:21:14;;;;;;;7.53;2.30;;;;;;;;;;5047938;28;20048;-60
2022/09/22 10:23:41;;;;;;;6.93;2.10;;;;;;;;;;5048196;28;20052;-60
2022/09/22 10:26:18;;;;;;;6.43;2.40;;;;;;;;;;5048661;28;20123;-60
2022/09/22 10:28:49;;;;;;;6.97;2.03;;;;;;;;;;5048613;28;20053;-60
2022/09/22 10:31:20;;;;;;;7.13;2.60;;;;;;;;;;5047959;28;20055;-60
2022/09/22 10:33:53;;;;;;;8.00;2.77;;;;;;;;;;5046119;28;20037;-61
2022/09/22 10:36:19;;;;;;;4.47;2.20;;;;;;;;;;5047970;28;20553;-61
2022/09/22 10:38:45;;;;;;;7.13;2.87;;;;;;;;;;5048019;28;20045;-61
2022/09/22 10:41:12;;;;;;;8.00;2.20;;;;;;;;;;5047211;28;20049;-61
2022/09/22 10:43:42;;;;;;;6.00;2.47;;;;;;;;;;5047892;28;20379;-61
2022/09/22 10:46:27;;;;;;;5.57;2.67;;;;;;;;;;5047620;28;20121;-62
2022/09/22 10:48:53;;;;;;;7.47;2.23;;;;;;;;;;5047576;28;20048;-62
2022/09/22 10:51:30;;;;;;;5.23;2.40;;;;;;;;;;5047846;28;20044;-62
2022/09/22 10:54:11;;;;;;;7.10;2.80;;;;;;;;;;5047976;28;20049;-62
2022/09/22 10:56:43;;;;;;;6.80;2.43;;;;;;;;;;5047494;28;20052;-62
2022/09/22 10:59:22;;;;;;;5.97;2.20;;;;;;;;;;5047908;28;20048;-61
2022/09/22 11:01:51;;;;;;;4.50;2.90;;;;;;;;;;5047761;28;20052;-61
2022/09/22 11:04:32;;;;;;;7.23;3.37;;;;;;;;;;5047477;28;20044;-61
2022/09/22 11:13:14;;;;;;;8.57;2.77;;;;;;;;;;5024261;28;19987;-61
2022/09/22 11:16:01;;;;;;;5.00;2.50;;;;;;;;;;5024837;28;20456;-62
2022/09/22 11:18:27;;;;;;;5.57;2.77;;;;;;;;;;5039591;28;20045;-62
2022/09/22 11:20:55;;;;;;;5.00;2.47;;;;;;;;;;5047314;28;20049;-62
2022/09/22 11:23:40;;;;;;;5.83;2.63;;;;;;;;;;5047015;28;20474;-62
2022/09/22 11:26:32;;;;;;;6.30;3.20;;;;;;;;;;5047636;28;20060;-61
2022/09/22 11:29:19;;;;;;;8.17;2.87;;;;;;;;;;5016318;28;20432;-61
2022/09/22 11:31:46;;;;;;;7.73;2.50;;;;;;;;;;5046810;28;20413;-62
2022/09/22 11:34:16;;;;;;;6.97;2.45;;;;;;;;;;5047341;28;20067;-61
2022/09/22 11:36:59;;;;;;;7.60;2.97;;;;;;;;;;5046937;28;20071;-62
2022/09/22 11:39:37;;;;;;;6.67;2.63;;;;;;;;;;5046785;28;20052;-62
2022/09/22 11:42:06;;;;;;;4.70;2.40;;;;;;;;;;5047277;28;20055;-61
2022/09/22 11:44:56;;;;;;;7.50;3.30;;;;;;;;;;5047193;28;20075;-62
2022/09/22 11:47:31;;;;;;;5.15;2.70;;;;;;;;;;5039225;28;20493;-62
2022/09/22 11:50:13;;;;;;;7.47;2.70;;;;;;;;;;5049691;28;20044;-62
2022/09/22 11:52:42;;;;;;;6.13;2.70;;;;;;;;;;5049717;28;20124;-62
2022/09/22 11:55:10;;;;;;;5.03;2.20;;;;;;;;;;5051157;28;20053;-62
2022/09/22 11:57:39;;;;;;;6.60;2.43;;;;;;;;;;5045885;28;20516;-62
2022/09/22 12:00:16;;;;;;;6.53;2.50;;;;;;;;;;5038528;28;20045;-62
2022/09/22 12:02:45;;;;;;;8.20;2.97;;;;;;;;;;5040071;28;20052;-62
2022/09/22 12:05:41;;;;;;;6.28;2.13;;;;;;;;;;5038733;28;20048;-62
2022/09/22 12:08:21;;;;;;;7.32;1.95;;;;;;;;;;5030182;28;20160;-62
2022/09/22 12:10:49;;;;;;;5.82;1.95;;;;;;;;;;5038500;28;20056;-62
2022/09/22 12:13:19;;;;;;;4.53;2.00;;;;;;;;;;5040882;28;20505;-62
2022/09/22 12:15:45;;;;;;;8.55;3.55;;;;;;;;;;5047375;28;20064;-62
2022/09/22 12:18:18;;;;;;;3.40;2.03;;;;;;;;;;5050130;28;20049;-62
2022/09/22 12:20:44;;;;;;;6.68;3.67;;;;;;;;;;5050497;28;20049;-62
2022/09/22 12:23:13;;;;;;;4.18;2.15;;;;;;;;;;5050171;28;20091;-62
2022/09/22 12:25:44;;;;;;;9.23;2.30;;;;;;;;;;5049749;28;20049;-62
2022/09/22 12:28:18;;;;;;;6.35;3.20;;;;;;;;;;5030726;28;20530;-62
2022/09/22 12:31:03;;;;;;;5.22;2.55;;;;;;;;;;5047708;28;20056;-62
2022/09/22 12:33:30;;;;;;;4.82;2.20;;;;;;;;;;5050273;28;20071;-62
2022/09/22 12:35:57;;;;;;;5.93;2.20;;;;;;;;;;5049831;28;20041;-62
2022/09/22 12:38:23;;;;;;;5.30;1.95;;;;;;;;;;5049716;28;20052;-62
2022/09/22 12:40:51;;;;;;;5.37;2.23;;;;;;;;;;5049411;28;20037;-62
2022/09/22 12:43:22;;;;;;;6.63;1.98;;;;;;;;;;5049645;28;20045;-62
2022/09/22 12:45:48;;;;;;;3.73;1.90;;;;;;;;;;5045080;28;20044;-61
2022/09/22 12:48:21;;;;;;;4.90;2.00;;;;;;;;;;5050125;28;20060;-62
2022/09/22 12:50:47;;;;;;;6.53;2.72;;;;;;;;;;5049373;28;20457;-62
2022/09/22 12:53:22;;;;;;;6.68;2.05;;;;;;;;;;5049959;28;20049;-62
2022/09/22 12:55:49;;;;;;;5.53;1.60;;;;;;;;;;5049288;28;20076;-62
2022/09/22 12:58:18;;;;;;;4.57;1.88;;;;;;;;;;5049874;28;20499;-62
2022/09/22 13:00:44;;;;;;;6.88;1.85;;;;;;;;;;5034937;28;20500;-62
2022/09/22 13:03:26;;;;;;;7.30;1.77;;;;;;;;;;5028462;28;20049;-62
2022/09/22 13:06:02;;;;;;;4.47;1.58;;;;;;;;;;5030216;28;20140;-62
2022/09/22 13:08:32;;;;;;;4.80;2.00;;;;;;;;;;5030448;28;20127;-62
2022/09/22 13:10:59;;;;;;;4.57;1.90;;;;;;;;;;5028583;28;20057;-62
2022/09/22 13:13:31;;;;;;;4.45;1.60;;;;;;;;;;5029899;28;20487;-61
2022/09/22 13:15:58;;;;;;;6.18;1.95;;;;;;;;;;5029856;28;20046;-61
2022/09/22 13:18:30;;;;;;;4.03;1.63;;;;;;;;;;5030407;28;20068;-61
2022/09/22 13:20:57;;;;;;;3.90;1.75;;;;;;;;;;5029937;28;20125;-61
2022/09/22 13:23:24;;;;;;;5.50;1.83;;;;;;;;;;5045914;28;20055;-61
2022/09/22 13:25:50;;;;;;;3.38;1.40;;;;;;;;;;5049512;28;20712;-61
2022/09/22 13:28:24;;;;;;;4.88;1.45;;;;;;;;;;5049883;28;20407;-62
2022/09/22 13:31:08;;;;;;;7.63;2.13;;;;;;;;;;5049490;28;20141;-61
2022/09/22 13:33:35;;;;;;;4.80;1.70;;;;;;;;;;5049845;28;20051;-61
2022/09/22 13:36:02;;;;;;;6.15;1.40;;;;;;;;;;5048926;28;20045;-61
2022/09/22 13:38:29;;;;;;;5.75;1.50;;;;;;;;;;5049540;28;20395;-61
2022/09/22 13:40:55;;;;;;;5.35;1.38;;;;;;;;;;5048849;28;20048;-61
2022/09/22 13:43:30;;;;;;;5.35;1.27;;;;;;;;;;5048743;28;20044;-61
2022/09/22 13:45:58;;;;;;;5.90;1.63;;;;;;;;;;5042297;28;20049;-61
2022/09/22 13:48:25;;;;;;;4.13;1.50;;;;;;;;;;5040443;28;20042;-61
2022/09/22 13:51:02;;;;;;;4.72;1.98;;;;;;;;;;5038090;28;20068;-62
2022/09/22 13:53:29;;;;;;;10.15;2.70;;;;;;;;;;5038488;28;20041;-61
2022/09/22 13:55:56;;;;;;;7.45;2.72;;;;;;;;;;5036726;28;20184;-62
2022/09/22 13:58:29;;;;;;;4.63;1.55;;;;;;;;;;5038832;28;20102;-60
2022/09/22 14:00:57;;;;;;;6.88;1.70;;;;;;;;;;5039073;28;20041;-61
2022/09/22 14:03:23;;;;;;;3.97;1.92;;;;;;;;;;5038507;28;20036;-61
2022/09/22 14:05:50;;;;;;;5.47;2.20;;;;;;;;;;5036979;28;20136;-61
2022/09/22 14:08:18;;;;;;;6.18;1.88;;;;;;;;;;5037882;28;20049;-61
2022/09/22 14:10:45;;;;;;;4.53;1.98;;;;;;;;;;5042141;28;20057;-61
2022/09/22 14:13:30;;;;;;;5.72;1.77;;;;;;;;;;5047737;28;20041;-61
2022/09/22 14:15:56;;;;;;;4.45;1.55;;;;;;;;;;5039351;28;20056;-61
2022/09/22 14:18:25;;;;;;;6.47;1.90;;;;;;;;;;5046320;28;20041;-61
2022/09/22 14:20:54;;;;;;;5.00;1.85;;;;;;;;;;5041994;28;20095;-61
2022/09/22 14:23:23;;;;;;;5.03;1.67;;;;;;;;;;5028533;28;20049;-61
2022/09/22 14:25:49;;;;;;;5.60;1.58;;;;;;;;;;5028363;28;20519;-61
2022/09/22 14:28:19;;;;;;;4.68;1.58;;;;;;;;;;5027009;28;20042;-61
2022/09/22 14:30:46;;;;;;;3.63;1.60;;;;;;;;;;5036308;28;20481;-61
2022/09/22 14:33:15;;;;;;;4.00;1.73;;;;;;;;;;5042211;28;20079;-61
2022/09/22 14:35:42;;;;;;;5.40;1.88;;;;;;;;;;5038528;28;20449;-62
2022/09/22 14:38:08;;;;;;;4.75;1.58;;;;;;;;;;5038092;28;20605;-61
2022/09/22 14:40:38;;;;;;;3.88;1.30;;;;;;;;;;5038661;28;20107;-61
2022/09/22 14:43:10;;;;;;;3.25;1.52;;;;;;;;;;5038015;28;20051;-61
2022/09/22 14:45:37;;;;;;;6.53;1.95;;;;;;;;;;5037387;28;20552;-61
2022/09/22 14:48:12;;;;;;;3.83;1.50;;;;;;;;;;5035731;28;20049;-61
2022/09/22 14:50:41;;;;;;;3.88;1.67;;;;;;;;;;5032376;28;20400;-61
2022/09/22 14:53:27;;;;;;;4.80;1.70;;;;;;;;;;5034553;28;20046;-62
2022/09/22 14:55:55;;;;;;;4.80;1.63;;;;;;;;;;5037969;28;20055;-61
2022/09/22 14:58:23;;;;;;;3.05;1.45;;;;;;;;;;5035421;28;20052;-61
2022/09/22 15:03:34;;;;;;;4.53;1.50;;;;;;;;;;5033520;28;20444;-61
2022/09/22 15:06:27;;;;;;;3.05;1.60;;;;;;;;;;5037852;28;20088;-61